Time,TemperatureF,DewpointF,PressureIn,WindDirection,WindDirectionDegrees,WindSpeedMPH,WindSpeedGustMPH,Humidity,HourlyPrecipIn,Conditions,Clouds,dailyrainin,SolarRadiationWatts/m^2,SoftwareType,DateUTC
2013-07-26 00:02:00,75.5,70.3,29.94,North,0,0.0,0.0,84,0.00,-RA,,0.00,0.0,WeatherDisplay:10.37,2013-07-26 05:02:00,
2013-07-26 00:07:00,75.4,70.2,29.94,North,0,0.0,0.0,84,0.00,-RA,,0.00,0.0,WeatherDisplay:10.37,2013-07-26 05:07:00,
2013-07-26 00:12:00,75.2,70.4,29.94,North,0,0.0,0.0,85,0.00,-RA,,0.00,0.0,WeatherDisplay:10.37,2013-07-26 05:12:00,
2013-07-26 00:17:00,74.9,70.4,29.94,North,0,0.0,0.0,86,0.01,-RA,,0.01,0.0,WeatherDisplay:10.37,2013-07-26 05:17:00,
2013-07-26 00:22:00,74.6,70.5,29.94,North,0,0.0,0.0,87,0.01,-RA,,0.01,0.0,WeatherDisplay:10.37,2013-07-26 05:22:00,
2013-07-26 00:27:00,74.3,70.2,29.94,North,0,0.0,0.0,87,0.01,-RA,,0.01,0.0,WeatherDisplay:10.37,2013-07-26 05:27:00,
2013-07-26 00:32:00,74.0,70.2,29.95,North,0,0.0,0.0,88,0.01,-RA,,0.01,0.0,WeatherDisplay:10.37,2013-07-26 05:32:00,
2013-07-26 00:37:00,73.7,70.3,29.95,North,0,0.0,0.0,89,0.01,-RA,,0.01,0.0,WeatherDisplay:10.37,2013-07-26 05:37:00,
2013-07-26 00:42:00,73.5,70.1,29.95,North,0,0.0,0.0,89,0.01,-RA,,0.01,0.0,WeatherDisplay:10.37,2013-07-26 05:42:00,
2013-07-26 00:47:00,73.3,70.2,29.95,North,0,0.0,0.0,90,0.02,-RA,,0.02,0.0,WeatherDisplay:10.37,2013-07-26 05:47:00,
2013-07-26 00:52:00,73.1,70.0,29.95,North,0,0.0,0.0,90,0.02,-RA,,0.02,0.0,WeatherDisplay:10.37,2013-07-26 05:52:00,
2013-07-26 00:57:00,73.0,70.2,29.95,North,0,0.0,0.0,91,0.02,-RA,,0.02,0.0,WeatherDisplay:10.37,2013-07-26 05:57:00,
2013-07-26 01:02:00,73.0,70.5,29.95,North,0,0.0,0.0,92,0.00,-RA,,0.00,0.0,WeatherDisplay:10.37,2013-07-26 06:02:00,
2013-07-26 01:07:00,72.9,70.8,29.94,North,0,0.0,0.0,93,0.01,-RA,,0.01,0.0,WeatherDisplay:10.37,2013-07-26 06:07:00,
2013-07-26 01:12:00,72.8,70.7,29.94,North,0,0.0,0.0,93,0.02,-RA,,0.02,0.0,WeatherDisplay:10.37,2013-07-26 06:12:00,
2013-07-26 01:17:00,72.7,70.6,29.94,North,0,0.0,0.0,93,0.01,-RA,,0.02,0.0,WeatherDisplay:10.37,2013-07-26 06:17:00,
2013-07-26 01:22:00,72.7,70.9,29.93,North,0,0.0,0.0,94,0.01,-RA,,0.02,0.0,WeatherDisplay:10.37,2013-07-26 06:22:00,
2013-07-26 01:27:00,72.8,71.0,29.93,North,0,0.0,0.0,94,0.01,-RA,,0.02,0.0,WeatherDisplay:10.37,2013-07-26 06:27:00,
2013-07-26 01:32:00,72.6,71.1,29.93,North,0,0.0,0.0,95,0.01,-RA,,0.02,0.0,WeatherDisplay:10.37,2013-07-26 06:32:00,
2013-07-26 01:37:00,72.5,71.0,29.93,North,0,0.0,0.0,95,0.01,-RA,,0.02,0.0,WeatherDisplay:10.37,2013-07-26 06:37:00,
2013-07-26 01:42:00,72.5,71.0,29.93,North,0,0.0,0.0,95,0.01,-RA,,0.02,0.0,WeatherDisplay:10.37,2013-07-26 06:42:00,
2013-07-26 01:47:00,72.5,71.0,29.93,North,0,0.0,0.0,95,0.01,-RA,,0.03,0.0,WeatherDisplay:10.37,2013-07-26 06:47:00,
2013-07-26 01:52:00,72.5,71.0,29.93,North,0,0.0,0.0,95,0.02,-RA,,0.05,0.0,WeatherDisplay:10.37,2013-07-26 06:52:00,
2013-07-26 01:57:00,71.0,68.2,29.93,North,0,0.0,0.0,91,0.06,-RA,,0.10,0.0,WeatherDisplay:10.37,2013-07-26 06:57:00,
2013-07-26 02:02:00,69.9,67.8,29.92,North,0,0.0,0.0,93,0.19,RA,,0.20,0.0,WeatherDisplay:10.37,2013-07-26 07:02:00,
2013-07-26 02:07:00,69.3,67.5,29.92,North,0,0.0,0.0,94,0.23,RA,,0.28,0.0,WeatherDisplay:10.37,2013-07-26 07:07:00,
2013-07-26 02:12:00,68.7,67.2,29.92,North,0,0.0,0.0,95,0.30,RA,,0.33,0.0,WeatherDisplay:10.37,2013-07-26 07:12:00,
2013-07-26 02:17:00,68.1,66.6,29.93,North,0,0.0,0.0,95,0.40,RA,,0.43,0.0,WeatherDisplay:10.37,2013-07-26 07:17:00,
2013-07-26 02:22:00,67.8,66.3,29.95,North,0,0.0,0.0,95,0.48,RA,,0.50,0.0,WeatherDisplay:10.37,2013-07-26 07:22:00,
2013-07-26 02:27:00,67.6,66.1,29.94,North,0,0.0,0.0,95,0.60,RA,,0.66,0.0,WeatherDisplay:10.37,2013-07-26 07:27:00,
2013-07-26 02:32:00,67.4,65.9,29.94,North,0,0.0,0.0,95,0.80,RA,,0.84,0.0,WeatherDisplay:10.37,2013-07-26 07:32:00,
2013-07-26 02:37:00,67.0,65.8,29.95,North,0,0.0,0.0,96,0.90,RA,,0.93,0.0,WeatherDisplay:10.37,2013-07-26 07:37:00,
2013-07-26 02:42:00,66.9,65.7,29.94,North,0,0.0,0.0,96,0.93,RA,,0.96,0.0,WeatherDisplay:10.37,2013-07-26 07:42:00,
2013-07-26 02:47:00,66.7,65.5,29.94,North,0,0.0,0.0,96,0.95,RA,,0.98,0.0,WeatherDisplay:10.37,2013-07-26 07:47:00,
2013-07-26 02:53:00,66.7,65.5,29.94,North,0,0.0,0.0,96,0.95,RA,,1.00,0.0,WeatherDisplay:10.37,2013-07-26 07:53:00,
2013-07-26 02:58:00,66.7,65.5,29.95,North,0,0.0,0.0,96,0.91,RA,,1.02,0.0,WeatherDisplay:10.37,2013-07-26 07:58:00,
2013-07-26 03:03:00,66.6,65.7,29.94,North,0,0.0,0.0,97,0.86,RA,,1.06,0.0,WeatherDisplay:10.37,2013-07-26 08:03:00,
2013-07-26 03:08:00,66.5,65.6,29.94,North,0,0.0,0.0,97,0.79,RA,,1.07,0.0,WeatherDisplay:10.37,2013-07-26 08:08:00,
2013-07-26 03:13:00,66.5,65.6,29.94,North,0,0.0,0.0,97,0.74,OVC,,1.07,0.0,WeatherDisplay:10.37,2013-07-26 08:13:00,
2013-07-26 03:18:00,66.4,65.5,29.94,North,0,0.0,0.0,97,0.64,RA,,1.08,0.0,WeatherDisplay:10.37,2013-07-26 08:18:00,
2013-07-26 03:23:00,66.4,65.5,29.94,North,0,0.0,0.0,97,0.58,OVC,,1.08,0.0,WeatherDisplay:10.37,2013-07-26 08:23:00,
2013-07-26 03:28:00,66.4,65.5,29.94,North,0,0.0,0.0,97,0.42,OVC,,1.08,0.0,WeatherDisplay:10.37,2013-07-26 08:28:00,
2013-07-26 03:33:00,66.4,65.5,29.95,North,0,0.0,0.0,97,0.24,RA,,1.09,0.0,WeatherDisplay:10.37,2013-07-26 08:33:00,
2013-07-26 03:38:00,66.4,65.5,29.94,North,0,0.0,0.0,97,0.17,RA,,1.10,0.0,WeatherDisplay:10.37,2013-07-26 08:38:00,
2013-07-26 03:43:00,66.3,65.4,29.94,North,0,0.0,0.0,97,0.19,RA,,1.15,0.0,WeatherDisplay:10.37,2013-07-26 08:43:00,
2013-07-26 03:48:00,66.2,65.3,29.94,North,0,0.0,0.0,97,0.21,RA,,1.19,0.0,WeatherDisplay:10.37,2013-07-26 08:48:00,
2013-07-26 03:53:00,66.1,65.2,29.94,North,0,0.0,0.0,97,0.24, +RA,,1.24,0.0,WeatherDisplay:10.37,2013-07-26 08:53:00,
2013-07-26 03:58:00,66.0,65.1,29.94,North,0,0.0,0.0,97,0.29, +RA,,1.31,0.0,WeatherDisplay:10.37,2013-07-26 08:58:00,
2013-07-26 04:03:00,66.0,65.1,29.94,North,0,0.0,0.0,97,0.31, +RA,,1.37,0.0,WeatherDisplay:10.37,2013-07-26 09:03:00,
2013-07-26 04:08:00,66.0,65.4,29.94,North,0,0.0,0.0,98,0.35, +RA,,1.42,0.0,WeatherDisplay:10.37,2013-07-26 09:08:00,
2013-07-26 04:13:00,66.0,65.4,29.93,North,0,0.0,0.0,98,0.39, +RA,,1.46,0.0,WeatherDisplay:10.37,2013-07-26 09:13:00,
2013-07-26 04:18:00,66.0,65.4,29.93,North,0,0.0,0.0,98,0.41, +RA,,1.49,0.0,WeatherDisplay:10.37,2013-07-26 09:18:00,
2013-07-26 04:23:00,66.0,65.4,29.94,North,0,0.0,0.0,98,0.44, +RA,,1.52,0.0,WeatherDisplay:10.37,2013-07-26 09:23:00,
2013-07-26 04:28:00,66.1,65.5,29.93,North,0,0.0,0.0,98,0.46, +RA,,1.54,0.0,WeatherDisplay:10.37,2013-07-26 09:28:00,
2013-07-26 04:33:00,66.1,65.5,29.93,North,0,0.0,0.0,98,0.46, +RA,,1.55,0.0,WeatherDisplay:10.37,2013-07-26 09:33:00,
2013-07-26 04:38:00,66.3,65.7,29.93,North,0,0.0,0.0,98,0.45, +RA,,1.55,0.0,WeatherDisplay:10.37,2013-07-26 09:38:00,
2013-07-26 04:43:00,66.4,65.8,29.93,North,0,0.0,0.0,98,0.41, +RA,,1.56,0.0,WeatherDisplay:10.37,2013-07-26 09:43:00,
2013-07-26 04:48:00,66.7,66.1,29.93,North,0,0.0,0.0,98,0.37, +RA,,1.56,0.0,WeatherDisplay:10.37,2013-07-26 09:48:00,
2013-07-26 04:53:00,66.7,66.1,29.93,North,0,0.0,0.0,98,0.32, +RA,,1.56,0.0,WeatherDisplay:10.37,2013-07-26 09:53:00,
2013-07-26 04:58:00,66.8,66.5,29.93,North,0,0.0,0.0,99,0.25, +RA,,1.56,0.0,WeatherDisplay:10.37,2013-07-26 09:58:00,
2013-07-26 05:03:00,66.8,66.5,29.93,North,0,0.0,0.0,99,0.19, +RA,,1.56,0.0,WeatherDisplay:10.37,2013-07-26 10:03:00,
2013-07-26 05:08:00,66.9,66.6,29.92,North,0,0.0,0.0,99,0.14, +RA,,1.56,0.0,WeatherDisplay:10.37,2013-07-26 10:08:00,
2013-07-26 05:13:00,67.1,66.8,29.93,North,0,0.0,0.0,99,0.10,-RA,,1.56,0.0,WeatherDisplay:10.37,2013-07-26 10:13:00,
2013-07-26 05:18:00,67.3,67.0,29.93,North,0,0.0,0.0,99,0.07,-RA,,1.56,0.0,WeatherDisplay:10.37,2013-07-26 10:18:00,
2013-07-26 05:23:00,67.3,67.0,29.93,North,0,0.0,0.0,99,0.04,-RA,,1.56,0.0,WeatherDisplay:10.37,2013-07-26 10:23:00,
2013-07-26 05:28:00,67.3,67.0,29.94,North,0,0.0,0.0,99,0.02,-RA,,1.56,0.0,WeatherDisplay:10.37,2013-07-26 10:28:00,
2013-07-26 05:33:00,67.2,66.9,29.93,North,0,0.0,0.0,99,0.01,-RA,,1.56,0.0,WeatherDisplay:10.37,2013-07-26 10:33:00,
2013-07-26 05:38:00,67.2,66.6,29.93,North,0,0.0,0.0,98,0.01,-RA,,1.56,0.0,WeatherDisplay:10.37,2013-07-26 10:38:00,
2013-07-26 05:43:00,67.2,66.6,29.94,North,0,0.0,0.0,98,0.00,-RA,,1.56,0.0,WeatherDisplay:10.37,2013-07-26 10:43:00,
2013-07-26 05:48:00,67.2,66.9,29.94,North,0,0.0,0.0,99,0.00,-RA,,1.56,0.0,WeatherDisplay:10.37,2013-07-26 10:48:00,
2013-07-26 05:53:00,67.3,67.0,29.94,North,0,0.0,0.0,99,0.00,-RA,,1.56,0.0,WeatherDisplay:10.37,2013-07-26 10:53:00,
2013-07-26 05:58:00,67.3,67.0,29.94,North,0,0.0,0.0,99,0.00,-RA,,1.56,0.0,WeatherDisplay:10.37,2013-07-26 10:58:00,
2013-07-26 06:03:00,67.4,67.1,29.94,North,0,0.0,0.0,99,0.00,-RA,,1.56,0.0,WeatherDisplay:10.37,2013-07-26 11:03:00,
2013-07-26 06:08:00,67.4,67.1,29.94,North,0,0.0,0.0,99,0.00,-RA,,1.56,0.0,WeatherDisplay:10.37,2013-07-26 11:08:00,
2013-07-26 06:13:00,67.5,67.2,29.94,North,0,0.0,0.0,99,0.00,OVC,,1.56,0.0,WeatherDisplay:10.37,2013-07-26 11:13:00,
2013-07-26 06:18:00,67.4,67.1,29.94,North,0,0.0,0.0,99,0.00,OVC,,1.56,0.0,WeatherDisplay:10.37,2013-07-26 11:18:00,
2013-07-26 06:23:00,67.5,67.2,29.94,North,0,0.0,0.0,99,0.00,OVC,,1.56,0.0,WeatherDisplay:10.37,2013-07-26 11:23:00,
2013-07-26 06:28:00,67.5,67.2,29.94,North,0,0.0,0.0,99,0.00,OVC,,1.56,0.0,WeatherDisplay:10.37,2013-07-26 11:28:00,
2013-07-26 06:33:00,67.5,67.2,29.94,North,0,0.0,0.0,99,0.00,OVC,,1.56,0.0,WeatherDisplay:10.37,2013-07-26 11:33:00,
2013-07-26 06:38:00,67.5,67.2,29.95,North,0,0.0,0.0,99,0.00,OVC,,1.56,0.0,WeatherDisplay:10.37,2013-07-26 11:38:00,
2013-07-26 06:43:00,67.5,67.2,29.95,North,0,0.0,0.0,99,0.00,OVC,,1.56,5.0,WeatherDisplay:10.37,2013-07-26 11:43:00,
2013-07-26 06:48:00,67.5,67.2,29.95,North,0,0.0,0.0,99,0.00,OVC,,1.56,7.0,WeatherDisplay:10.37,2013-07-26 11:48:00,
2013-07-26 06:53:00,67.6,67.3,29.95,North,0,0.0,0.0,99,0.00,OVC,,1.56,9.0,WeatherDisplay:10.37,2013-07-26 11:53:00,
2013-07-26 06:58:00,67.7,67.4,29.95,North,0,0.0,0.0,99,0.00,OVC,,1.56,11.0,WeatherDisplay:10.37,2013-07-26 11:58:00,
2013-07-26 07:03:00,67.7,67.4,29.95,North,0,0.0,0.0,99,0.00,OVC,,1.56,12.0,WeatherDisplay:10.37,2013-07-26 12:03:00,
2013-07-26 07:08:00,67.7,67.4,29.95,North,0,0.0,0.0,99,0.00,OVC,,1.56,19.0,WeatherDisplay:10.37,2013-07-26 12:08:00,
2013-07-26 07:13:00,67.8,67.5,29.95,North,0,0.0,0.0,99,0.00,OVC,,1.56,28.0,WeatherDisplay:10.37,2013-07-26 12:13:00,
2013-07-26 07:18:00,67.8,67.5,29.96,North,0,0.0,0.0,99,0.00,OVC,,1.56,30.0,WeatherDisplay:10.37,2013-07-26 12:18:00,
2013-07-26 07:23:00,67.8,67.5,29.96,North,0,0.0,0.0,99,0.00,OVC,,1.56,32.0,WeatherDisplay:10.37,2013-07-26 12:23:00,
2013-07-26 07:28:00,67.9,67.6,29.96,North,0,0.0,0.0,99,0.00,OVC,,1.56,33.0,WeatherDisplay:10.37,2013-07-26 12:28:00,
2013-07-26 07:33:00,67.9,67.6,29.96,North,0,0.0,0.0,99,0.00,OVC,,1.56,30.0,WeatherDisplay:10.37,2013-07-26 12:33:00,
2013-07-26 07:38:00,67.8,67.5,29.97,North,0,0.0,0.0,99,0.00,OVC,,1.56,30.0,WeatherDisplay:10.37,2013-07-26 12:38:00,
2013-07-26 07:43:00,67.8,67.5,29.97,North,0,0.0,0.0,99,0.00,OVC,,1.56,21.0,WeatherDisplay:10.37,2013-07-26 12:43:00,
2013-07-26 07:48:00,67.7,67.4,29.97,North,0,0.0,0.0,99,0.00,OVC,,1.56,19.0,WeatherDisplay:10.37,2013-07-26 12:48:00,
2013-07-26 07:53:00,67.7,67.4,29.97,North,0,0.0,0.0,99,0.00,OVC,,1.56,21.0,WeatherDisplay:10.37,2013-07-26 12:53:00,
2013-07-26 07:58:00,67.6,67.3,29.97,North,0,0.0,0.0,99,0.00,OVC,,1.56,25.0,WeatherDisplay:10.37,2013-07-26 12:58:00,
2013-07-26 08:03:00,67.6,67.3,29.97,North,0,0.0,0.0,99,0.00,OVC,,1.56,84.0,WeatherDisplay:10.37,2013-07-26 13:03:00,
2013-07-26 08:08:00,67.6,67.3,29.97,North,0,0.0,0.0,99,0.00,OVC,,1.56,62.0,WeatherDisplay:10.37,2013-07-26 13:08:00,
2013-07-26 08:13:00,67.6,67.3,29.97,North,0,0.0,0.0,99,0.00,BKN,,1.56,42.0,WeatherDisplay:10.37,2013-07-26 13:13:00,
2013-07-26 08:18:00,67.8,67.5,29.97,North,0,0.0,0.0,99,0.00,BKN,,1.56,51.0,WeatherDisplay:10.37,2013-07-26 13:18:00,
2013-07-26 08:23:00,67.8,67.5,29.97,North,0,0.0,0.0,99,0.00,BKN,,1.56,39.0,WeatherDisplay:10.37,2013-07-26 13:23:00,
2013-07-26 08:28:00,67.9,67.6,29.97,North,0,0.0,0.0,99,0.00,BKN,,1.56,39.0,WeatherDisplay:10.37,2013-07-26 13:28:00,
2013-07-26 08:33:00,67.9,67.6,29.97,North,0,0.0,0.0,99,0.00,BKN,,1.56,37.0,WeatherDisplay:10.37,2013-07-26 13:33:00,
2013-07-26 08:38:00,68.1,67.8,29.98,North,0,0.0,0.0,99,0.00,BKN,,1.56,51.0,WeatherDisplay:10.37,2013-07-26 13:38:00,
2013-07-26 08:43:00,68.3,68.0,29.98,North,0,0.0,0.0,99,0.00,BKN,,1.56,100.0,WeatherDisplay:10.37,2013-07-26 13:43:00,
2013-07-26 08:48:00,68.6,68.3,29.98,North,0,0.0,0.0,99,0.00,BKN,,1.56,86.0,WeatherDisplay:10.37,2013-07-26 13:48:00,
2013-07-26 08:53:00,68.6,68.3,29.98,North,0,0.0,0.0,99,0.00,BKN,,1.56,107.0,WeatherDisplay:10.37,2013-07-26 13:53:00,
2013-07-26 08:58:00,68.6,68.3,29.98,North,0,0.0,0.0,99,0.00,BKN,,1.56,69.0,WeatherDisplay:10.37,2013-07-26 13:58:00,
2013-07-26 09:03:00,68.6,68.0,29.99,North,0,0.0,0.0,98,0.00,BKN,,1.56,128.0,WeatherDisplay:10.37,2013-07-26 14:03:00,
2013-07-26 09:08:00,68.9,68.3,29.99,North,0,0.0,0.0,98,0.00,BKN,,1.56,128.0,WeatherDisplay:10.37,2013-07-26 14:08:00,
2013-07-26 09:13:00,69.0,68.4,29.99,North,0,0.0,0.0,98,0.00,SCT,,1.56,95.0,WeatherDisplay:10.37,2013-07-26 14:13:00,
2013-07-26 09:18:00,69.1,68.5,29.99,North,0,0.0,0.0,98,0.00,SCT,,1.56,72.0,WeatherDisplay:10.37,2013-07-26 14:18:00,
2013-07-26 09:23:00,69.3,68.7,29.99,North,0,0.0,0.0,98,0.00,SCT,,1.56,418.0,WeatherDisplay:10.37,2013-07-26 14:23:00,
2013-07-26 09:28:00,69.7,68.8,29.99,North,0,0.0,0.0,97,0.00,SCT,,1.56,374.0,WeatherDisplay:10.37,2013-07-26 14:28:00,
2013-07-26 09:33:00,70.3,69.4,29.99,North,0,0.0,0.0,97,0.00,SCT,,1.56,401.0,WeatherDisplay:10.37,2013-07-26 14:33:00,
2013-07-26 09:38:00,70.5,69.0,29.99,North,0,0.0,0.0,95,0.00,SCT,,1.56,183.0,WeatherDisplay:10.37,2013-07-26 14:38:00,
2013-07-26 09:43:00,70.6,69.1,29.99,North,0,0.0,0.0,95,0.00,SCT,,1.56,144.0,WeatherDisplay:10.37,2013-07-26 14:43:00,
2013-07-26 09:48:00,71.0,69.2,29.99,North,0,0.0,0.0,94,0.00,SCT,,1.56,322.0,WeatherDisplay:10.37,2013-07-26 14:48:00,
2013-07-26 09:53:00,71.5,69.7,29.98,North,0,0.0,0.0,94,0.00,SCT,,1.56,253.0,WeatherDisplay:10.37,2013-07-26 14:53:00,
2013-07-26 09:58:00,71.9,69.8,29.98,North,0,0.0,0.0,93,0.00,SCT,,1.56,204.0,WeatherDisplay:10.37,2013-07-26 14:58:00,
2013-07-26 10:03:00,72.3,70.2,29.98,North,0,0.0,0.0,93,0.00,SCT,,1.56,100.0,WeatherDisplay:10.37,2013-07-26 15:03:00,
2013-07-26 10:08:00,72.7,69.9,29.98,North,0,0.0,0.0,91,0.00,SCT,,1.56,90.0,WeatherDisplay:10.37,2013-07-26 15:08:00,
2013-07-26 10:13:00,73.1,70.0,29.99,North,0,0.0,0.0,90,0.00,SCT,,1.56,174.0,WeatherDisplay:10.37,2013-07-26 15:13:00,
2013-07-26 10:18:00,73.5,69.7,29.99,North,0,0.0,0.0,88,0.00,SCT,,1.56,181.0,WeatherDisplay:10.37,2013-07-26 15:18:00,
2013-07-26 10:23:00,73.7,69.2,29.99,North,0,0.0,0.0,86,0.00,SCT,,1.56,269.0,WeatherDisplay:10.37,2013-07-26 15:23:00,
2013-07-26 10:28:00,73.9,70.1,29.99,North,0,0.0,0.0,88,0.00,SCT,,1.56,179.0,WeatherDisplay:10.37,2013-07-26 15:28:00,
2013-07-26 10:33:00,74.0,69.5,29.99,North,0,0.0,0.0,86,0.00,SCT,,1.56,258.0,WeatherDisplay:10.37,2013-07-26 15:33:00,
2013-07-26 10:38:00,74.2,69.4,29.99,North,0,0.0,0.0,85,0.00,SCT,,1.56,230.0,WeatherDisplay:10.37,2013-07-26 15:38:00,
2013-07-26 10:43:00,74.3,69.1,29.99,North,0,0.0,0.0,84,0.00,SCT,,1.56,209.0,WeatherDisplay:10.37,2013-07-26 15:43:00,
2013-07-26 10:48:00,74.5,69.3,29.99,North,0,0.0,0.0,84,0.00,SCT,,1.56,197.0,WeatherDisplay:10.37,2013-07-26 15:48:00,
2013-07-26 10:53:00,74.6,69.8,29.99,North,0,0.0,0.0,85,0.00,SCT,,1.56,301.0,WeatherDisplay:10.37,2013-07-26 15:53:00,
2013-07-26 10:58:00,75.0,70.2,29.99,North,0,0.0,0.0,85,0.00,SCT,,1.56,376.0,WeatherDisplay:10.37,2013-07-26 15:58:00,
2013-07-26 11:03:00,75.3,69.4,29.99,North,0,0.0,0.0,82,0.00,BKN,,1.56,325.0,WeatherDisplay:10.37,2013-07-26 16:03:00,
2013-07-26 11:08:00,75.5,69.3,29.99,North,0,0.0,0.0,81,0.00,BKN,,1.56,297.0,WeatherDisplay:10.37,2013-07-26 16:08:00,
2013-07-26 11:13:00,75.7,69.5,29.99,North,0,0.0,0.0,81,0.00,BKN,,1.56,285.0,WeatherDisplay:10.37,2013-07-26 16:13:00,
2013-07-26 11:18:00,76.0,70.1,29.99,NNW,346,5.0,5.0,82,0.00,BKN,,1.56,369.0,WeatherDisplay:10.37,2013-07-26 16:18:00,
2013-07-26 11:23:00,76.1,69.5,29.99,West,275,4.0,4.0,80,0.00,BKN,,1.56,302.0,WeatherDisplay:10.37,2013-07-26 16:23:00,
2013-07-26 11:28:00,76.1,69.5,29.99,NW,311,6.0,6.0,80,0.00,BKN,,1.56,332.0,WeatherDisplay:10.37,2013-07-26 16:28:00,
2013-07-26 11:33:00,76.1,69.5,29.99,NW,311,6.0,6.0,80,0.00,BKN,,1.56,432.0,WeatherDisplay:10.37,2013-07-26 16:33:00,
2013-07-26 11:38:00,76.2,68.8,29.99,NNE,15,0.0,0.0,78,0.00,BKN,,1.56,350.0,WeatherDisplay:10.37,2013-07-26 16:38:00,
2013-07-26 11:43:00,76.5,70.2,29.99,North,0,0.0,0.0,81,0.00,BKN,,1.56,380.0,WeatherDisplay:10.37,2013-07-26 16:43:00,
2013-07-26 11:48:00,77.0,69.6,29.99,North,0,0.0,0.0,78,0.00,BKN,,1.56,468.0,WeatherDisplay:10.37,2013-07-26 16:48:00,
2013-07-26 11:53:00,77.2,69.4,29.99,NW,326,10.4,10.4,77,0.00,BKN,,1.56,294.0,WeatherDisplay:10.37,2013-07-26 16:53:00,
2013-07-26 11:58:00,77.4,70.0,29.99,NW,316,8.1,8.1,78,0.00,BKN,,1.56,246.0,WeatherDisplay:10.37,2013-07-26 16:58:00,
2013-07-26 12:03:00,77.4,69.6,30.00,NNE,18,5.8,5.8,77,0.00,BKN,,1.56,605.0,WeatherDisplay:10.37,2013-07-26 17:03:00,
2013-07-26 12:08:00,77.6,69.8,30.00,NNW,346,11.5,11.5,77,0.00,BKN,,1.56,387.0,WeatherDisplay:10.37,2013-07-26 17:08:00,
2013-07-26 12:13:00,77.8,70.0,30.00,NNW,336,6.9,6.9,77,0.00,BKN,,1.56,429.0,WeatherDisplay:10.37,2013-07-26 17:13:00,
2013-07-26 12:18:00,78.0,69.8,30.00,North,355,4.6,4.6,76,0.00,BKN,,1.56,287.0,WeatherDisplay:10.37,2013-07-26 17:18:00,
2013-07-26 12:23:00,78.0,70.6,30.00,North,355,4.0,4.0,78,0.00,BKN,,1.56,287.0,WeatherDisplay:10.37,2013-07-26 17:23:00,
2013-07-26 12:28:00,78.7,70.9,30.00,NNW,331,10.4,10.4,77,0.00,BKN,,1.56,1092.0,WeatherDisplay:10.37,2013-07-26 17:28:00,
2013-07-26 12:33:00,79.0,70.8,30.00,NNE,30,11.5,11.5,76,0.00,BKN,,1.56,209.0,WeatherDisplay:10.37,2013-07-26 17:33:00,
2013-07-26 12:38:00,78.7,70.1,30.00,NNW,336,5.0,5.0,75,0.00,BKN,,1.56,216.0,WeatherDisplay:10.37,2013-07-26 17:38:00,
2013-07-26 12:43:00,78.6,69.6,30.00,NNE,33,10.0,10.0,74,0.00,SCT,,1.56,257.0,WeatherDisplay:10.37,2013-07-26 17:43:00,
2013-07-26 12:48:00,78.8,69.8,30.00,NNW,327,11.5,11.5,74,0.00,SCT,,1.56,241.0,WeatherDisplay:10.37,2013-07-26 17:48:00,
2013-07-26 12:53:00,79.0,70.0,30.00,NNW,344,12.7,12.7,74,0.00,SCT,,1.56,320.0,WeatherDisplay:10.37,2013-07-26 17:53:00,
2013-07-26 12:58:00,78.9,70.7,30.00,NW,324,9.2,9.2,76,0.00,SCT,,1.56,1090.0,WeatherDisplay:10.37,2013-07-26 17:58:00,
2013-07-26 13:03:00,79.0,69.6,29.99,NNE,27,9.2,9.2,73,0.00,BKN,,1.56,963.0,WeatherDisplay:10.37,2013-07-26 18:03:00,
2013-07-26 13:08:00,79.3,70.3,29.99,NNE,25,8.1,8.1,74,0.00,BKN,,1.56,969.0,WeatherDisplay:10.37,2013-07-26 18:08:00,
2013-07-26 13:13:00,79.5,69.7,29.99,NNW,333,9.2,9.2,72,0.00,BKN,,1.56,1155.0,WeatherDisplay:10.37,2013-07-26 18:13:00,
2013-07-26 13:18:00,79.3,69.5,29.99,NE,49,9.2,9.2,72,0.00,BKN,,1.56,278.0,WeatherDisplay:10.37,2013-07-26 18:18:00,
2013-07-26 13:23:00,79.2,69.8,30.00,NNE,13,9.2,9.2,73,0.00,BKN,,1.56,239.0,WeatherDisplay:10.37,2013-07-26 18:23:00,
2013-07-26 13:28:00,79.4,70.8,29.99,North,355,9.2,9.2,75,0.00,BKN,,1.56,406.0,WeatherDisplay:10.37,2013-07-26 18:28:00,
2013-07-26 13:33:00,79.4,70.0,29.99,East,82,12.7,12.7,73,0.00,BKN,,1.56,318.0,WeatherDisplay:10.37,2013-07-26 18:33:00,
2013-07-26 13:38:00,79.5,70.5,29.99,NNW,329,10.4,10.4,74,0.00,BKN,,1.56,318.0,WeatherDisplay:10.37,2013-07-26 18:38:00,
2013-07-26 13:43:00,79.6,70.2,29.99,North,360,5.8,5.8,73,0.00,BKN,,1.56,322.0,WeatherDisplay:10.37,2013-07-26 18:43:00,
2013-07-26 13:48:00,79.5,70.9,29.99,NNW,331,8.1,8.1,75,0.00,BKN,,1.56,1179.0,WeatherDisplay:10.37,2013-07-26 18:48:00,
2013-07-26 13:53:00,79.9,72.4,29.99,NW,315,11.5,11.5,78,0.00,BKN,,1.56,1044.0,WeatherDisplay:10.37,2013-07-26 18:53:00,
2013-07-26 13:58:00,80.2,71.2,29.99,NNE,24,4.0,4.0,74,0.00,BKN,,1.56,1013.0,WeatherDisplay:10.37,2013-07-26 18:58:00,
2013-07-26 14:03:00,80.2,70.4,29.99,NNE,15,7.0,7.0,72,0.00,BKN,,1.56,366.0,WeatherDisplay:10.37,2013-07-26 19:03:00,
2013-07-26 14:08:00,80.1,70.7,29.99,NNE,15,7.0,7.0,73,0.00,BKN,,1.56,153.0,WeatherDisplay:10.37,2013-07-26 19:08:00,
2013-07-26 14:13:00,79.5,70.1,29.99,North,0,0.0,0.0,73,0.00,BKN,,1.56,308.0,WeatherDisplay:10.37,2013-07-26 19:13:00,
2013-07-26 14:18:00,79.1,70.5,29.99,North,0,0.0,0.0,75,0.00,BKN,,1.56,169.0,WeatherDisplay:10.37,2013-07-26 19:18:00,
2013-07-26 14:23:00,78.8,70.2,29.99,North,0,0.0,0.0,75,0.00,BKN,,1.56,225.0,WeatherDisplay:10.37,2013-07-26 19:23:00,
2013-07-26 14:28:00,79.1,70.9,29.99,NNW,333,13.8,13.8,76,0.00,BKN,,1.56,946.0,WeatherDisplay:10.37,2013-07-26 19:28:00,
2013-07-26 14:33:00,79.6,71.0,29.99,NNW,333,6.0,6.0,75,0.00,BKN,,1.56,946.0,WeatherDisplay:10.37,2013-07-26 19:33:00,
2013-07-26 14:38:00,80.2,71.2,29.99,NNE,15,6.0,6.0,74,0.00,BKN,,1.56,942.0,WeatherDisplay:10.37,2013-07-26 19:38:00,
2013-07-26 14:43:00,80.8,70.9,29.99,North,0,0.0,0.0,72,0.00,BKN,,1.56,1018.0,WeatherDisplay:10.37,2013-07-26 19:43:00,
2013-07-26 14:48:00,80.7,70.4,29.99,North,0,0.0,0.0,71,0.00,BKN,,1.56,1120.0,WeatherDisplay:10.37,2013-07-26 19:48:00,
2013-07-26 14:53:00,80.7,70.8,29.99,North,0,0.0,0.0,72,0.00,BKN,,1.56,362.0,WeatherDisplay:10.37,2013-07-26 19:53:00,
2013-07-26 14:58:00,80.5,71.0,29.99,North,0,0.0,0.0,73,0.00,BKN,,1.56,373.0,WeatherDisplay:10.37,2013-07-26 19:58:00,
2013-07-26 15:03:00,80.6,70.3,29.98,North,0,0.0,0.0,71,0.00,SCT,,1.56,1034.0,WeatherDisplay:10.37,2013-07-26 20:03:00,
2013-07-26 15:08:00,80.9,72.2,29.98,North,0,0.0,0.0,75,0.00,SCT,,1.56,974.0,WeatherDisplay:10.37,2013-07-26 20:08:00,
2013-07-26 15:13:00,81.3,71.0,29.98,North,0,0.0,0.0,71,0.00,SCT,,1.56,911.0,WeatherDisplay:10.37,2013-07-26 20:13:00,
2013-07-26 15:18:00,81.8,70.6,29.98,North,0,0.0,0.0,69,0.00,SCT,,1.56,909.0,WeatherDisplay:10.37,2013-07-26 20:18:00,
2013-07-26 15:23:00,81.8,70.2,29.98,North,0,0.0,0.0,68,0.00,SCT,,1.56,272.0,WeatherDisplay:10.37,2013-07-26 20:23:00,
2013-07-26 15:28:00,81.8,71.1,29.98,North,0,0.0,0.0,70,0.00,SCT,,1.56,898.0,WeatherDisplay:10.37,2013-07-26 20:28:00,
2013-07-26 15:33:00,82.2,69.7,29.97,North,0,0.0,0.0,66,0.00,SCT,,1.56,868.0,WeatherDisplay:10.37,2013-07-26 20:33:00,
2013-07-26 15:38:00,82.6,69.2,29.98,North,0,0.0,0.0,64,0.00,SCT,,1.56,893.0,WeatherDisplay:10.37,2013-07-26 20:38:00,
2013-07-26 15:43:00,83.0,69.1,29.98,North,0,0.0,0.0,63,0.00,SCT,,1.56,854.0,WeatherDisplay:10.37,2013-07-26 20:43:00,
2013-07-26 15:48:00,83.3,69.8,29.97,North,0,0.0,0.0,64,0.00,SCT,,1.56,861.0,WeatherDisplay:10.37,2013-07-26 20:48:00,
2013-07-26 15:53:00,83.4,69.5,29.97,North,0,0.0,0.0,63,0.00,SCT,,1.56,867.0,WeatherDisplay:10.37,2013-07-26 20:53:00,
2013-07-26 15:58:00,83.6,69.2,29.97,North,0,0.0,0.0,62,0.00,SCT,,1.56,884.0,WeatherDisplay:10.37,2013-07-26 20:58:00,
2013-07-26 16:03:00,83.7,69.8,29.97,North,0,0.0,0.0,63,0.00,SCT,,1.56,809.0,WeatherDisplay:10.37,2013-07-26 21:03:00,
2013-07-26 16:08:00,84.0,69.1,29.97,North,0,0.0,0.0,61,0.00,SCT,,1.56,782.0,WeatherDisplay:10.37,2013-07-26 21:08:00,
2013-07-26 16:13:00,84.2,68.3,29.97,North,0,0.0,0.0,59,0.00,SCT,,1.56,837.0,WeatherDisplay:10.37,2013-07-26 21:13:00,
2013-07-26 16:18:00,84.0,68.6,29.97,North,0,0.0,0.0,60,0.00,SCT,,1.56,828.0,WeatherDisplay:10.37,2013-07-26 21:18:00,
2013-07-26 16:23:00,83.9,69.5,29.97,North,0,0.0,0.0,62,0.00,SCT,,1.56,812.0,WeatherDisplay:10.37,2013-07-26 21:23:00,
2013-07-26 16:28:00,84.3,70.8,29.97,North,0,0.0,0.0,64,0.00,SCT,,1.56,835.0,WeatherDisplay:10.37,2013-07-26 21:28:00,
2013-07-26 16:33:00,84.5,69.1,29.96,North,0,0.0,0.0,60,0.00,SCT,,1.56,765.0,WeatherDisplay:10.37,2013-07-26 21:33:00,
2013-07-26 16:38:00,84.4,69.0,29.96,North,0,0.0,0.0,60,0.00,SCT,,1.56,745.0,WeatherDisplay:10.37,2013-07-26 21:38:00,
2013-07-26 16:43:00,84.5,68.1,29.96,North,0,0.0,0.0,58,0.00,SCT,,1.56,729.0,WeatherDisplay:10.37,2013-07-26 21:43:00,
2013-07-26 16:48:00,84.6,68.2,29.97,North,0,0.0,0.0,58,0.00,SCT,,1.56,705.0,WeatherDisplay:10.37,2013-07-26 21:48:00,
2013-07-26 16:53:00,84.7,67.8,29.96,North,0,0.0,0.0,57,0.00,SCT,,1.56,687.0,WeatherDisplay:10.37,2013-07-26 21:53:00,
2013-07-26 16:58:00,84.9,68.0,29.96,North,0,0.0,0.0,57,0.00,SCT,,1.56,710.0,WeatherDisplay:10.37,2013-07-26 21:58:00,
2013-07-26 17:03:00,85.0,67.5,29.97,North,0,0.0,0.0,56,0.00,SCT,,1.56,657.0,WeatherDisplay:10.37,2013-07-26 22:03:00,
2013-07-26 17:08:00,85.2,67.7,29.97,North,0,0.0,0.0,56,0.00,SCT,,1.56,626.0,WeatherDisplay:10.37,2013-07-26 22:08:00,
2013-07-26 17:13:00,85.2,66.1,29.97,North,0,0.0,0.0,53,0.00,SCT,,1.56,647.0,WeatherDisplay:10.37,2013-07-26 22:13:00,
2013-07-26 17:18:00,85.1,66.6,29.97,North,0,0.0,0.0,54,0.00,SCT,,1.56,624.0,WeatherDisplay:10.37,2013-07-26 22:18:00,
2013-07-26 17:23:00,85.1,66.0,29.97,North,0,0.0,0.0,53,0.00,SCT,,1.56,613.0,WeatherDisplay:10.37,2013-07-26 22:23:00,
2013-07-26 17:28:00,85.1,66.6,29.97,North,0,0.0,0.0,54,0.00,SCT,,1.56,591.0,WeatherDisplay:10.37,2013-07-26 22:28:00,
2013-07-26 17:33:00,85.2,64.5,29.97,North,0,0.0,0.0,50,0.00,SCT,,1.56,580.0,WeatherDisplay:10.37,2013-07-26 22:33:00,
2013-07-26 17:38:00,85.1,66.0,29.97,North,0,0.0,0.0,53,0.00,SCT,,1.56,563.0,WeatherDisplay:10.37,2013-07-26 22:38:00,
2013-07-26 17:43:00,85.1,65.5,29.98,North,0,0.0,0.0,52,0.00,SCT,,1.56,543.0,WeatherDisplay:10.37,2013-07-26 22:43:00,
2013-07-26 17:48:00,85.0,66.5,29.98,North,0,0.0,0.0,54,0.00,SCT,,1.56,531.0,WeatherDisplay:10.37,2013-07-26 22:48:00,
2013-07-26 17:53:00,85.0,66.5,29.97,North,0,0.0,0.0,54,0.00,SCT,,1.56,512.0,WeatherDisplay:10.37,2013-07-26 22:53:00,
2013-07-26 17:58:00,84.8,65.2,29.97,North,0,0.0,0.0,52,0.00,SCT,,1.56,91.0,WeatherDisplay:10.37,2013-07-26 22:58:00,
2013-07-26 18:03:00,84.5,64.4,29.98,North,0,0.0,0.0,51,0.00,FEW,,1.56,487.0,WeatherDisplay:10.37,2013-07-26 23:03:00,
2013-07-26 18:08:00,84.5,65.5,29.97,North,0,0.0,0.0,53,0.00,FEW,,1.56,462.0,WeatherDisplay:10.37,2013-07-26 23:08:00,
2013-07-26 18:13:00,84.5,66.0,29.97,North,0,0.0,0.0,54,0.00,FEW,,1.56,448.0,WeatherDisplay:10.37,2013-07-26 23:13:00,
2013-07-26 18:18:00,84.5,66.0,29.97,North,0,0.0,0.0,54,0.00,FEW,,1.56,434.0,WeatherDisplay:10.37,2013-07-26 23:18:00,
2013-07-26 18:23:00,84.4,64.9,29.98,North,0,0.0,0.0,52,0.00,FEW,,1.56,348.0,WeatherDisplay:10.37,2013-07-26 23:23:00,
2013-07-26 18:28:00,84.1,65.1,29.98,North,0,0.0,0.0,53,0.00,FEW,,1.56,53.0,WeatherDisplay:10.37,2013-07-26 23:28:00,
2013-07-26 18:33:00,83.8,65.9,29.98,North,0,0.0,0.0,55,0.00,FEW,,1.56,72.0,WeatherDisplay:10.37,2013-07-26 23:33:00,
2013-07-26 18:38:00,83.4,65.0,29.98,North,0,0.0,0.0,54,0.00,FEW,,1.56,69.0,WeatherDisplay:10.37,2013-07-26 23:38:00,
2013-07-26 18:43:00,83.2,64.8,29.97,North,0,0.0,0.0,54,0.00,FEW,,1.56,63.0,WeatherDisplay:10.37,2013-07-26 23:43:00,
2013-07-26 18:48:00,83.1,65.3,29.98,North,0,0.0,0.0,55,0.00,FEW,,1.56,65.0,WeatherDisplay:10.37,2013-07-26 23:48:00,
2013-07-26 18:53:00,83.0,65.2,29.98,North,0,0.0,0.0,55,0.00,FEW,,1.56,72.0,WeatherDisplay:10.37,2013-07-26 23:53:00,
2013-07-26 18:58:00,82.9,66.1,29.98,North,0,0.0,0.0,57,0.00,FEW,,1.56,62.0,WeatherDisplay:10.37,2013-07-26 23:58:00,
2013-07-26 19:03:00,82.7,64.4,29.98,North,0,0.0,0.0,54,0.00,SCT,,1.56,58.0,WeatherDisplay:10.37,2013-07-27 00:03:00,
2013-07-26 19:08:00,82.5,64.2,29.98,North,0,0.0,0.0,54,0.00,SCT,,1.56,56.0,WeatherDisplay:10.37,2013-07-27 00:08:00,
2013-07-26 19:09:00,82.5,64.2,29.98,North,0,0.0,0.0,54,0.00,SCT,,1.56,56.0,WeatherDisplay:10.37,2013-07-27 00:09:00,
2013-07-26 19:14:00,82.5,64.2,29.98,North,0,0.0,0.0,54,0.00,SCT,,1.56,56.0,WeatherDisplay:10.37,2013-07-27 00:14:00,
2013-07-26 19:19:00,82.3,64.0,29.98,North,0,0.0,0.0,54,0.00,SCT,,1.56,53.0,WeatherDisplay:10.37,2013-07-27 00:19:00,
2013-07-26 19:24:00,82.2,64.4,29.98,North,0,0.0,0.0,55,0.00,SCT,,1.56,51.0,WeatherDisplay:10.37,2013-07-27 00:24:00,
2013-07-26 19:29:00,82.1,64.8,29.98,North,0,0.0,0.0,56,0.00,SCT,,1.56,49.0,WeatherDisplay:10.37,2013-07-27 00:29:00,
2013-07-26 19:34:00,81.9,63.6,29.98,North,0,0.0,0.0,54,0.00,SCT,,1.56,46.0,WeatherDisplay:10.37,2013-07-27 00:34:00,
2013-07-26 19:39:00,81.8,63.5,29.98,North,0,0.0,0.0,54,0.00,SCT,,1.56,44.0,WeatherDisplay:10.37,2013-07-27 00:39:00,
2013-07-26 19:44:00,81.6,62.8,29.98,North,0,0.0,0.0,53,0.00,SCT,,1.56,42.0,WeatherDisplay:10.37,2013-07-27 00:44:00,
2013-07-26 19:49:00,81.4,62.6,29.98,North,0,0.0,0.0,53,0.00,SCT,,1.56,40.0,WeatherDisplay:10.37,2013-07-27 00:49:00,
2013-07-26 19:54:00,81.3,62.5,29.98,North,0,0.0,0.0,53,0.00,SCT,,1.56,37.0,WeatherDisplay:10.37,2013-07-27 00:54:00,
2013-07-26 19:59:00,81.1,62.9,29.98,North,0,0.0,0.0,54,0.00,SCT,,1.56,35.0,WeatherDisplay:10.37,2013-07-27 00:59:00,
2013-07-26 20:04:00,80.9,62.7,29.98,North,0,0.0,0.0,54,0.00,FEW,,1.56,32.0,WeatherDisplay:10.37,2013-07-27 01:04:00,
2013-07-26 20:09:00,80.6,62.9,29.98,North,0,0.0,0.0,55,0.00,FEW,,1.56,28.0,WeatherDisplay:10.37,2013-07-27 01:09:00,
2013-07-26 20:14:00,80.4,63.3,29.98,North,0,0.0,0.0,56,0.00,FEW,,1.56,25.0,WeatherDisplay:10.37,2013-07-27 01:14:00,
2013-07-26 20:19:00,80.1,63.0,29.98,North,0,0.0,0.0,56,0.00,FEW,,1.56,21.0,WeatherDisplay:10.37,2013-07-27 01:19:00,
2013-07-26 20:24:00,79.8,63.2,29.98,North,0,0.0,0.0,57,0.00,FEW,,1.56,16.0,WeatherDisplay:10.37,2013-07-27 01:24:00,
2013-07-26 20:29:00,79.6,63.5,29.98,North,0,0.0,0.0,58,0.00,FEW,,1.56,12.0,WeatherDisplay:10.37,2013-07-27 01:29:00,
2013-07-26 20:34:00,79.3,63.2,29.98,North,0,0.0,0.0,58,0.00,FEW,,1.56,7.0,WeatherDisplay:10.37,2013-07-27 01:34:00,
2013-07-26 20:39:00,79.0,63.4,29.98,North,0,0.0,0.0,59,0.00,FEW,,1.56,5.0,WeatherDisplay:10.37,2013-07-27 01:39:00,
2013-07-26 20:44:00,78.6,63.6,29.98,North,0,0.0,0.0,60,0.00,FEW,,1.56,0.0,WeatherDisplay:10.37,2013-07-27 01:44:00,
2013-07-26 20:49:00,78.2,63.6,29.99,North,0,0.0,0.0,61,0.00,FEW,,1.56,0.0,WeatherDisplay:10.37,2013-07-27 01:49:00,
2013-07-26 20:54:00,77.8,64.2,29.99,North,0,0.0,0.0,63,0.00,FEW,,1.56,0.0,WeatherDisplay:10.37,2013-07-27 01:54:00,
2013-07-26 20:59:00,77.4,63.4,29.99,North,0,0.0,0.0,62,0.00,FEW,,1.56,0.0,WeatherDisplay:10.37,2013-07-27 01:59:00,
2013-07-26 21:04:00,77.1,64.0,29.98,North,0,0.0,0.0,64,0.00,FEW,,1.56,0.0,WeatherDisplay:10.37,2013-07-27 02:04:00,
2013-07-26 21:09:00,76.8,63.7,29.99,North,0,0.0,0.0,64,0.00,FEW,,1.56,0.0,WeatherDisplay:10.37,2013-07-27 02:09:00,
2013-07-26 21:14:00,76.4,63.8,29.99,North,0,0.0,0.0,65,0.00,FEW,,1.56,0.0,WeatherDisplay:10.37,2013-07-27 02:14:00,
2013-07-26 21:19:00,76.0,63.8,29.99,North,0,0.0,0.0,66,0.00,FEW,,1.56,0.0,WeatherDisplay:10.37,2013-07-27 02:19:00,
2013-07-26 21:24:00,75.7,63.5,29.99,North,0,0.0,0.0,66,0.00,FEW,,1.56,0.0,WeatherDisplay:10.37,2013-07-27 02:24:00,
2013-07-26 21:29:00,75.4,63.7,29.99,North,0,0.0,0.0,67,0.00,FEW,,1.56,0.0,WeatherDisplay:10.37,2013-07-27 02:29:00,
2013-07-26 21:34:00,75.1,63.8,30.00,North,0,0.0,0.0,68,0.00,FEW,,1.56,0.0,WeatherDisplay:10.37,2013-07-27 02:34:00,
2013-07-26 21:39:00,74.9,63.6,30.00,North,0,0.0,0.0,68,0.00,FEW,,1.56,0.0,WeatherDisplay:10.37,2013-07-27 02:39:00,
2013-07-26 21:44:00,74.7,63.9,30.00,North,0,0.0,0.0,69,0.00,FEW,,1.56,0.0,WeatherDisplay:10.37,2013-07-27 02:44:00,
2013-07-26 21:49:00,74.4,64.0,30.00,North,0,0.0,0.0,70,0.00,FEW,,1.56,0.0,WeatherDisplay:10.37,2013-07-27 02:49:00,
2013-07-26 21:54:00,74.2,63.8,30.00,North,0,0.0,0.0,70,0.00,FEW,,1.56,0.0,WeatherDisplay:10.37,2013-07-27 02:54:00,
2013-07-26 21:59:00,74.0,64.0,30.00,North,0,0.0,0.0,71,0.00,FEW,,1.56,0.0,WeatherDisplay:10.37,2013-07-27 02:59:00,
2013-07-26 22:04:00,73.8,63.8,30.01,North,0,0.0,0.0,71,0.00,FEW,,1.56,0.0,WeatherDisplay:10.37,2013-07-27 03:04:00,
2013-07-26 22:09:00,73.7,64.1,30.00,North,0,0.0,0.0,72,0.00,FEW,,1.56,0.0,WeatherDisplay:10.37,2013-07-27 03:09:00,
2013-07-26 22:14:00,73.5,63.9,30.01,North,0,0.0,0.0,72,0.00,FEW,,1.56,0.0,WeatherDisplay:10.37,2013-07-27 03:14:00,
2013-07-26 22:19:00,73.4,64.2,30.01,North,0,0.0,0.0,73,0.00,FEW,,1.56,0.0,WeatherDisplay:10.37,2013-07-27 03:19:00,
2013-07-26 22:24:00,73.3,64.1,30.01,North,0,0.0,0.0,73,0.00,FEW,,1.56,0.0,WeatherDisplay:10.37,2013-07-27 03:24:00,
2013-07-26 22:29:00,73.1,64.3,30.01,North,0,0.0,0.0,74,0.00,FEW,,1.56,0.0,WeatherDisplay:10.37,2013-07-27 03:29:00,
2013-07-26 22:34:00,72.9,64.5,30.01,North,0,0.0,0.0,75,0.00,FEW,,1.56,0.0,WeatherDisplay:10.37,2013-07-27 03:34:00,
2013-07-26 22:39:00,72.7,64.3,30.01,North,0,0.0,0.0,75,0.00,FEW,,1.56,0.0,WeatherDisplay:10.37,2013-07-27 03:39:00,
2013-07-26 22:44:00,72.6,64.2,30.01,North,0,0.0,0.0,75,0.00,FEW,,1.56,0.0,WeatherDisplay:10.37,2013-07-27 03:44:00,
2013-07-26 22:49:00,72.4,64.4,30.01,North,0,0.0,0.0,76,0.00,FEW,,1.56,0.0,WeatherDisplay:10.37,2013-07-27 03:49:00,
2013-07-26 22:54:00,72.2,64.2,30.02,North,0,0.0,0.0,76,0.00,FEW,,1.56,0.0,WeatherDisplay:10.37,2013-07-27 03:54:00,
2013-07-26 22:59:00,72.0,64.4,30.02,North,0,0.0,0.0,77,0.00,FEW,,1.56,0.0,WeatherDisplay:10.37,2013-07-27 03:59:00,
2013-07-26 23:01:00,72.0,64.4,30.01,North,0,0.0,0.0,77,0.00,FEW,,1.56,0.0,WeatherDisplay:10.37,2013-07-27 04:01:00,
2013-07-26 23:02:00,72.0,64.4,30.01,North,0,0.0,0.0,77,0.00,FEW,,1.56,0.0,WeatherDisplay:10.37,2013-07-27 04:02:00,
2013-07-26 23:07:00,71.9,64.7,30.02,North,0,0.0,0.0,78,0.00,FEW,,1.56,0.0,WeatherDisplay:10.37,2013-07-27 04:07:00,
2013-07-26 23:12:00,71.8,64.6,30.01,North,0,0.0,0.0,78,0.00,FEW,,1.56,0.0,WeatherDisplay:10.37,2013-07-27 04:12:00,
2013-07-26 23:17:00,71.7,64.8,30.02,North,0,0.0,0.0,79,0.00,FEW,,1.56,0.0,WeatherDisplay:10.37,2013-07-27 04:17:00,
2013-07-26 23:22:00,71.5,64.6,30.02,North,0,0.0,0.0,79,0.00,FEW,,1.56,0.0,WeatherDisplay:10.37,2013-07-27 04:22:00,
2013-07-26 23:27:00,71.4,64.5,30.02,North,0,0.0,0.0,79,0.00,FEW,,1.56,0.0,WeatherDisplay:10.37,2013-07-27 04:27:00,
2013-07-26 23:32:00,71.3,64.8,30.02,North,0,0.0,0.0,80,0.00,FEW,,1.56,0.0,WeatherDisplay:10.37,2013-07-27 04:32:00,
2013-07-26 23:37:00,71.2,64.7,30.03,North,0,0.0,0.0,80,0.00,FEW,,1.56,0.0,WeatherDisplay:10.37,2013-07-27 04:37:00,
2013-07-26 23:42:00,71.3,64.8,30.03,North,0,0.0,0.0,80,0.00,FEW,,1.56,0.0,WeatherDisplay:10.37,2013-07-27 04:42:00,
2013-07-26 23:47:00,71.2,64.7,30.03,North,0,0.0,0.0,80,0.00,FEW,,1.56,0.0,WeatherDisplay:10.37,2013-07-27 04:47:00,
2013-07-26 23:52:00,71.3,64.8,30.03,North,0,0.0,0.0,80,0.00,FEW,,1.56,0.0,WeatherDisplay:10.37,2013-07-27 04:52:00,
2013-07-26 23:57:00,71.3,64.4,30.03,North,0,0.0,0.0,79,0.00,FEW,,1.56,0.0,WeatherDisplay:10.37,2013-07-27 04:57:00,